Time;durP1;ratioP1;P1;durP2;ratioP2;P2;SDS_P1;SDS_P2;PMS_P1;PMS_P2;Temp;Humidity;BMP_temperature;BMP_pressure;BME280_temperature;BME280_humidity;BME280_pressure;Samples;Min_cycle;Max_cycle;Signal;HPM_P1;HPM_P2
2024/01/27 00:01:49;;;;;;;2.27;1.60;;;;;;;;;;5086677;28;20211;-64
2024/01/27 00:04:16;;;;;;;2.83;1.63;;;;;;;;;;5086486;28;20217;-65
2024/01/27 00:06:43;;;;;;;3.97;1.20;;;;;;;;;;5081379;28;20837;-65
2024/01/27 00:09:11;;;;;;;3.17;1.83;;;;;;;;;;5086182;28;20611;-65
2024/01/27 00:11:38;;;;;;;1.97;1.37;;;;;;;;;;5083910;28;20210;-65
2024/01/27 00:14:06;;;;;;;7.97;1.67;;;;;;;;;;5075081;28;20296;-65
2024/01/27 00:16:33;;;;;;;4.37;1.57;;;;;;;;;;5091099;28;20218;-65
2024/01/27 00:19:00;;;;;;;8.83;1.67;;;;;;;;;;5094983;28;20749;-65
2024/01/27 00:21:27;;;;;;;3.60;1.60;;;;;;;;;;5086640;28;20206;-64
2024/01/27 00:24:00;;;;;;;2.37;1.20;;;;;;;;;;5085579;28;20669;-65
2024/01/27 00:26:27;;;;;;;5.57;1.70;;;;;;;;;;5083989;28;20428;-65
2024/01/27 00:28:55;;;;;;;3.60;1.40;;;;;;;;;;5073698;28;20209;-64
2024/01/27 00:31:23;;;;;;;4.50;1.73;;;;;;;;;;5091473;28;20688;-64
2024/01/27 00:33:50;;;;;;;3.93;1.40;;;;;;;;;;5081648;28;20210;-64
2024/01/27 00:36:17;;;;;;;6.53;1.70;;;;;;;;;;5086147;28;20958;-65
2024/01/27 00:38:44;;;;;;;5.00;1.33;;;;;;;;;;5086149;28;20210;-65
2024/01/27 00:41:20;;;;;;;5.93;1.70;;;;;;;;;;5086454;28;20283;-65
2024/01/27 00:43:47;;;;;;;4.73;1.40;;;;;;;;;;5094155;28;20210;-65
2024/01/27 00:46:14;;;;;;;6.40;1.60;;;;;;;;;;5090369;28;20194;-65
2024/01/27 00:48:43;;;;;;;4.67;1.43;;;;;;;;;;5090467;28;20220;-65
2024/01/27 00:51:10;;;;;;;1.47;1.27;;;;;;;;;;5087722;28;20211;-65
2024/01/27 00:53:37;;;;;;;2.67;1.67;;;;;;;;;;5089712;28;20198;-65
2024/01/27 00:56:04;;;;;;;2.67;1.50;;;;;;;;;;5090067;28;20724;-65
2024/01/27 00:58:31;;;;;;;1.73;1.30;;;;;;;;;;5102919;28;20226;-65
2024/01/27 01:00:59;;;;;;;4.10;1.07;;;;;;;;;;5089366;28;20206;-64
2024/01/27 01:03:26;;;;;;;5.87;1.50;;;;;;;;;;5084323;28;20257;-64
2024/01/27 01:05:54;;;;;;;9.83;1.47;;;;;;;;;;5077616;28;20207;-64
2024/01/27 01:08:21;;;;;;;2.63;1.20;;;;;;;;;;5069607;28;20211;-64
2024/01/27 01:10:48;;;;;;;3.07;1.47;;;;;;;;;;5082343;28;20241;-64
2024/01/27 01:13:15;;;;;;;2.80;0.97;;;;;;;;;;5089496;28;20762;-64
2024/01/27 01:15:42;;;;;;;3.77;1.17;;;;;;;;;;5089123;28;20226;-63
2024/01/27 01:18:09;;;;;;;2.73;1.40;;;;;;;;;;5089016;28;20217;-63
2024/01/27 01:20:36;;;;;;;4.03;0.90;;;;;;;;;;5089144;28;20574;-63
2024/01/27 01:23:05;;;;;;;2.87;1.17;;;;;;;;;;5088792;28;20214;-64
2024/01/27 01:25:32;;;;;;;4.10;1.40;;;;;;;;;;5089008;28;20194;-63
2024/01/27 01:27:59;;;;;;;7.73;1.43;;;;;;;;;;5089251;28;20222;-64
2024/01/27 01:30:26;;;;;;;3.20;1.50;;;;;;;;;;5088965;28;20203;-64
2024/01/27 01:32:53;;;;;;;4.27;1.07;;;;;;;;;;5092575;28;20213;-63
2024/01/27 01:35:20;;;;;;;3.60;1.17;;;;;;;;;;5088530;28;20207;-63
2024/01/27 01:37:48;;;;;;;3.70;1.03;;;;;;;;;;5088333;28;20687;-63
2024/01/27 01:40:16;;;;;;;4.07;1.20;;;;;;;;;;5088796;28;20661;-64
2024/01/27 01:42:43;;;;;;;5.03;1.00;;;;;;;;;;5089293;28;20569;-63
2024/01/27 01:45:13;;;;;;;2.70;1.20;;;;;;;;;;5088122;28;20199;-64
2024/01/27 01:47:40;;;;;;;7.57;1.80;;;;;;;;;;5087249;28;20325;-63
2024/01/27 01:50:08;;;;;;;6.30;1.20;;;;;;;;;;5088707;28;20207;-64
2024/01/27 01:52:35;;;;;;;4.47;1.03;;;;;;;;;;5089131;28;20225;-64
2024/01/27 01:55:03;;;;;;;6.33;1.10;;;;;;;;;;5088034;28;20202;-63
2024/01/27 01:57:31;;;;;;;8.43;1.50;;;;;;;;;;5088810;28;20295;-63
2024/01/27 01:59:58;;;;;;;2.53;0.80;;;;;;;;;;5088690;28;20240;-64
2024/01/27 02:02:25;;;;;;;3.03;1.00;;;;;;;;;;5088595;28;20315;-63
2024/01/27 02:04:52;;;;;;;3.67;1.07;;;;;;;;;;5087712;28;20214;-64
2024/01/27 02:07:18;;;;;;;4.33;1.10;;;;;;;;;;5105062;28;20205;-63
2024/01/27 02:09:45;;;;;;;3.03;0.90;;;;;;;;;;5093469;28;20641;-64
2024/01/27 02:12:12;;;;;;;6.17;1.07;;;;;;;;;;5087653;28;20209;-63
2024/01/27 02:14:40;;;;;;;1.33;0.90;;;;;;;;;;5080879;28;20217;-63
2024/01/27 02:17:08;;;;;;;6.60;1.10;;;;;;;;;;5076924;28;20857;-62
2024/01/27 02:19:35;;;;;;;3.07;1.20;;;;;;;;;;5084421;28;20198;-63
2024/01/27 02:22:02;;;;;;;4.33;1.00;;;;;;;;;;5089006;28;20206;-63
2024/01/27 02:24:30;;;;;;;3.33;1.20;;;;;;;;;;5091936;28;20379;-63
2024/01/27 02:26:57;;;;;;;5.60;1.20;;;;;;;;;;5086331;28;20194;-63
2024/01/27 02:29:27;;;;;;;8.00;1.10;;;;;;;;;;5088349;28;20205;-63
2024/01/27 02:31:54;;;;;;;3.63;0.80;;;;;;;;;;5088614;28;20230;-63
2024/01/27 02:34:21;;;;;;;2.23;1.17;;;;;;;;;;5088389;28;20207;-63
2024/01/27 02:36:48;;;;;;;3.70;0.97;;;;;;;;;;5086284;28;20268;-63
2024/01/27 02:39:15;;;;;;;1.80;1.30;;;;;;;;;;5088359;28;20823;-63
2024/01/27 02:41:44;;;;;;;2.70;1.20;;;;;;;;;;5088740;28;20232;-63
2024/01/27 02:44:11;;;;;;;6.00;1.30;;;;;;;;;;5075915;28;20297;-64
2024/01/27 02:46:38;;;;;;;1.33;1.17;;;;;;;;;;5068616;28;20209;-63
2024/01/27 02:49:05;;;;;;;4.07;1.50;;;;;;;;;;5076318;28;20590;-63
2024/01/27 02:51:32;;;;;;;2.53;1.10;;;;;;;;;;5088737;28;20581;-63
2024/01/27 02:53:59;;;;;;;3.73;1.60;;;;;;;;;;5088329;28;20218;-63
2024/01/27 02:56:26;;;;;;;4.67;1.13;;;;;;;;;;5087811;28;20222;-63
2024/01/27 02:58:54;;;;;;;6.03;1.40;;;;;;;;;;5088017;28;20226;-63
2024/01/27 03:01:21;;;;;;;1.57;0.87;;;;;;;;;;5088206;28;20221;-63
2024/01/27 03:03:48;;;;;;;4.17;1.70;;;;;;;;;;5092790;28;20217;-63
2024/01/27 03:06:16;;;;;;;3.47;1.50;;;;;;;;;;5087240;28;20212;-64
2024/01/27 03:08:43;;;;;;;3.57;1.30;;;;;;;;;;5086448;28;20213;-63
2024/01/27 03:11:10;;;;;;;4.53;1.40;;;;;;;;;;5080591;28;20242;-63
2024/01/27 03:13:44;;;;;;;1.77;1.23;;;;;;;;;;5088296;28;20206;-63
2024/01/27 03:16:13;;;;;;;1.53;1.20;;;;;;;;;;5088041;28;20335;-64
2024/01/27 03:18:40;;;;;;;3.77;1.23;;;;;;;;;;5088002;28;20321;-63
2024/01/27 03:21:08;;;;;;;5.50;1.30;;;;;;;;;;5088095;28;20207;-62
2024/01/27 03:23:36;;;;;;;2.50;1.20;;;;;;;;;;5088012;28;20236;-63
2024/01/27 03:26:03;;;;;;;4.87;1.23;;;;;;;;;;5087709;28;20198;-62
2024/01/27 03:28:31;;;;;;;3.97;1.20;;;;;;;;;;5088100;28;20210;-62
2024/01/27 03:30:59;;;;;;;2.27;1.00;;;;;;;;;;5084892;28;20223;-63
2024/01/27 03:33:29;;;;;;;1.70;1.00;;;;;;;;;;5078353;28;20540;-63
2024/01/27 03:35:56;;;;;;;4.60;1.40;;;;;;;;;;5085456;28;20202;-63
2024/01/27 03:38:23;;;;;;;2.13;1.30;;;;;;;;;;5088189;28;20202;-63
2024/01/27 03:40:50;;;;;;;6.17;1.53;;;;;;;;;;5089072;28;20206;-63
2024/01/27 03:43:17;;;;;;;2.60;1.10;;;;;;;;;;5087013;28;20224;-63
2024/01/27 03:45:45;;;;;;;5.50;1.40;;;;;;;;;;5086924;28;20226;-63
2024/01/27 03:48:12;;;;;;;2.00;1.23;;;;;;;;;;5072952;28;20227;-63
2024/01/27 03:50:40;;;;;;;1.20;1.10;;;;;;;;;;5079313;28;20214;-63
2024/01/27 03:53:07;;;;;;;1.17;1.00;;;;;;;;;;5094254;28;20584;-63
2024/01/27 03:55:35;;;;;;;1.60;1.10;;;;;;;;;;5101500;28;20210;-63
2024/01/27 03:58:02;;;;;;;1.50;0.90;;;;;;;;;;5091246;28;20324;-63
2024/01/27 04:00:32;;;;;;;5.27;1.20;;;;;;;;;;5107559;28;20649;-63
2024/01/27 04:02:59;;;;;;;2.57;1.37;;;;;;;;;;5097287;28;20207;-64
2024/01/27 04:05:26;;;;;;;1.80;1.50;;;;;;;;;;5070513;28;20194;-63
2024/01/27 04:07:55;;;;;;;3.00;1.17;;;;;;;;;;5087280;28;20210;-64
2024/01/27 04:10:22;;;;;;;2.27;1.43;;;;;;;;;;5086270;28;20234;-63
2024/01/27 04:12:49;;;;;;;1.63;1.50;;;;;;;;;;5086547;28;20216;-63
2024/01/27 04:15:16;;;;;;;1.60;1.60;;;;;;;;;;5086394;28;20210;-63
2024/01/27 04:17:43;;;;;;;2.33;1.53;;;;;;;;;;5085114;28;20233;-63
2024/01/27 04:20:11;;;;;;;4.50;1.63;;;;;;;;;;5096688;28;20197;-63
2024/01/27 04:22:39;;;;;;;3.10;1.40;;;;;;;;;;5093060;28;20213;-64
2024/01/27 04:25:08;;;;;;;1.43;1.03;;;;;;;;;;5093662;28;20209;-63
2024/01/27 04:27:38;;;;;;;1.30;1.20;;;;;;;;;;5076951;28;20210;-64
2024/01/27 04:30:05;;;;;;;4.63;1.30;;;;;;;;;;5073699;28;20207;-63
2024/01/27 04:32:32;;;;;;;5.07;1.40;;;;;;;;;;5084918;28;20205;-63
2024/01/27 04:34:59;;;;;;;3.27;1.17;;;;;;;;;;5093469;28;20205;-63
2024/01/27 04:37:26;;;;;;;3.30;1.40;;;;;;;;;;5092707;28;20217;-63
2024/01/27 04:39:53;;;;;;;5.57;1.13;;;;;;;;;;5079059;28;20214;-64
2024/01/27 04:42:22;;;;;;;2.77;1.40;;;;;;;;;;5092753;28;20206;-62
2024/01/27 04:44:49;;;;;;;4.50;1.50;;;;;;;;;;5079318;28;20214;-63
2024/01/27 04:47:16;;;;;;;5.43;1.40;;;;;;;;;;5090229;28;20827;-63
2024/01/27 04:49:43;;;;;;;2.07;1.50;;;;;;;;;;5092873;28;20282;-63
2024/01/27 04:52:10;;;;;;;1.37;1.33;;;;;;;;;;5107454;28;20209;-63
2024/01/27 04:54:37;;;;;;;5.43;1.50;;;;;;;;;;5091380;28;20210;-64
2024/01/27 04:57:05;;;;;;;2.20;1.03;;;;;;;;;;5093059;28;20234;-63
2024/01/27 04:59:33;;;;;;;1.67;1.17;;;;;;;;;;5089937;28;20335;-63
2024/01/27 05:02:00;;;;;;;2.53;1.43;;;;;;;;;;5089562;28;20204;-63
2024/01/27 05:04:27;;;;;;;6.80;1.53;;;;;;;;;;5092464;28;20203;-63
2024/01/27 05:06:54;;;;;;;3.73;1.47;;;;;;;;;;5093142;28;20205;-63
2024/01/27 05:09:21;;;;;;;2.87;1.30;;;;;;;;;;5102437;28;20233;-63
2024/01/27 05:11:51;;;;;;;3.90;1.40;;;;;;;;;;5093025;28;20249;-64
2024/01/27 05:14:18;;;;;;;2.33;1.30;;;;;;;;;;5092803;28;20258;-63
2024/01/27 05:16:47;;;;;;;2.30;1.27;;;;;;;;;;5086435;28;20265;-63
2024/01/27 05:19:16;;;;;;;2.97;1.57;;;;;;;;;;5093351;28;20217;-64
2024/01/27 05:21:43;;;;;;;2.97;1.40;;;;;;;;;;5094078;28;20225;-64
2024/01/27 05:24:11;;;;;;;1.77;1.37;;;;;;;;;;5102699;28;20213;-63
2024/01/27 05:26:38;;;;;;;5.13;1.53;;;;;;;;;;5092394;28;20208;-63
2024/01/27 05:29:05;;;;;;;4.93;1.40;;;;;;;;;;5090485;28;20217;-63
2024/01/27 05:31:32;;;;;;;2.53;1.40;;;;;;;;;;5089509;28;20288;-63
2024/01/27 05:34:00;;;;;;;5.77;1.33;;;;;;;;;;5088860;28;20213;-63
2024/01/27 05:36:27;;;;;;;4.63;1.57;;;;;;;;;;5090447;28;20226;-63
2024/01/27 05:38:54;;;;;;;3.23;1.53;;;;;;;;;;5082753;28;20666;-68
2024/01/27 05:41:21;;;;;;;3.40;1.57;;;;;;;;;;5088309;28;20283;-63
2024/01/27 05:43:48;;;;;;;2.60;1.40;;;;;;;;;;5082931;28;20222;-64
2024/01/27 05:46:15;;;;;;;1.90;1.50;;;;;;;;;;5079573;28;20680;-64
2024/01/27 05:48:42;;;;;;;5.37;1.57;;;;;;;;;;5088782;28;20217;-63
2024/01/27 05:51:12;;;;;;;2.57;1.47;;;;;;;;;;5082935;28;20214;-63
2024/01/27 05:53:39;;;;;;;2.27;1.40;;;;;;;;;;5088910;28;20445;-63
2024/01/27 05:56:06;;;;;;;3.30;1.40;;;;;;;;;;5074463;28;20201;-63
2024/01/27 05:58:33;;;;;;;2.77;1.43;;;;;;;;;;5088741;28;20232;-63
2024/01/27 06:01:00;;;;;;;3.23;1.43;;;;;;;;;;5081160;28;20213;-64
2024/01/27 06:03:27;;;;;;;3.67;1.70;;;;;;;;;;5088748;28;20245;-63
2024/01/27 06:05:54;;;;;;;2.00;1.40;;;;;;;;;;5090014;28;20209;-64
2024/01/27 06:08:22;;;;;;;2.00;1.83;;;;;;;;;;5068353;28;20225;-64
2024/01/27 06:10:49;;;;;;;7.03;1.70;;;;;;;;;;5076302;28;20730;-65
2024/01/27 06:13:17;;;;;;;5.60;1.60;;;;;;;;;;5075506;28;20206;-64
2024/01/27 06:15:44;;;;;;;4.63;1.80;;;;;;;;;;5088439;28;20712;-64
2024/01/27 06:18:11;;;;;;;3.37;1.47;;;;;;;;;;5092612;28;20220;-64
2024/01/27 06:20:40;;;;;;;4.57;1.70;;;;;;;;;;5104925;28;20200;-63
2024/01/27 06:23:07;;;;;;;1.80;1.70;;;;;;;;;;5080147;28;20210;-64
2024/01/27 06:25:35;;;;;;;2.87;1.67;;;;;;;;;;5085286;28;20209;-64
2024/01/27 06:28:02;;;;;;;2.13;1.40;;;;;;;;;;5088654;28;20202;-63
2024/01/27 06:30:29;;;;;;;1.97;1.77;;;;;;;;;;5074026;28;20214;-63
2024/01/27 06:32:56;;;;;;;2.67;1.43;;;;;;;;;;5088167;28;20209;-63
2024/01/27 06:35:23;;;;;;;2.13;1.70;;;;;;;;;;5088375;28;20216;-63
2024/01/27 06:37:51;;;;;;;5.37;2.10;;;;;;;;;;5087976;28;20229;-64
2024/01/27 06:40:18;;;;;;;5.63;1.60;;;;;;;;;;5085963;28;20622;-63
2024/01/27 06:42:46;;;;;;;2.77;1.70;;;;;;;;;;5087969;28;20209;-64
2024/01/27 06:45:14;;;;;;;3.93;1.97;;;;;;;;;;5088017;28;20201;-63
2024/01/27 06:47:41;;;;;;;2.40;2.20;;;;;;;;;;5087906;28;20226;-64
2024/01/27 06:50:08;;;;;;;8.87;2.17;;;;;;;;;;5080031;28;20218;-64
2024/01/27 06:52:35;;;;;;;2.20;2.10;;;;;;;;;;5086781;28;20211;-64
2024/01/27 06:55:02;;;;;;;4.37;1.87;;;;;;;;;;5088881;28;20212;-64
2024/01/27 06:57:29;;;;;;;7.40;2.70;;;;;;;;;;5087271;28;20237;-63
2024/01/27 06:59:58;;;;;;;3.37;2.60;;;;;;;;;;5087199;28;20229;-63
2024/01/27 07:02:26;;;;;;;7.23;5.23;;;;;;;;;;5086606;28;20205;-63
2024/01/27 07:04:53;;;;;;;5.60;4.10;;;;;;;;;;5085549;28;20205;-63
2024/01/27 07:07:20;;;;;;;5.20;2.93;;;;;;;;;;5082081;28;20199;-63
2024/01/27 07:09:47;;;;;;;5.37;2.37;;;;;;;;;;5108065;28;20259;-63
2024/01/27 07:12:14;;;;;;;2.37;2.17;;;;;;;;;;5087744;28;20215;-63
2024/01/27 07:14:41;;;;;;;3.40;1.70;;;;;;;;;;5085694;28;20219;-63
2024/01/27 07:17:09;;;;;;;3.10;2.10;;;;;;;;;;5087466;28;20718;-63
2024/01/27 07:19:36;;;;;;;3.67;2.97;;;;;;;;;;5088228;28;20211;-64
2024/01/27 07:22:04;;;;;;;3.23;2.93;;;;;;;;;;5087008;28;20251;-63
2024/01/27 07:24:31;;;;;;;5.63;2.87;;;;;;;;;;5089690;28;20205;-63
2024/01/27 07:26:59;;;;;;;4.03;2.90;;;;;;;;;;5087970;28;20217;-63
2024/01/27 07:29:26;;;;;;;2.63;2.43;;;;;;;;;;5088368;28;20315;-63
2024/01/27 07:31:53;;;;;;;6.43;2.33;;;;;;;;;;5086679;28;20985;-63
2024/01/27 07:34:21;;;;;;;1.93;1.83;;;;;;;;;;5087207;28;20208;-63
2024/01/27 07:36:49;;;;;;;2.10;1.90;;;;;;;;;;5087640;28;20240;-63
2024/01/27 07:39:16;;;;;;;8.67;2.47;;;;;;;;;;5089003;28;20315;-63
2024/01/27 07:41:43;;;;;;;5.43;2.53;;;;;;;;;;5081811;28;20313;-63
2024/01/27 07:44:10;;;;;;;3.03;2.00;;;;;;;;;;5087653;28;20204;-63
2024/01/27 07:46:37;;;;;;;8.00;1.80;;;;;;;;;;5087673;28;20295;-63
2024/01/27 07:49:05;;;;;;;5.83;2.70;;;;;;;;;;5088105;28;20204;-63
2024/01/27 07:51:33;;;;;;;6.13;2.57;;;;;;;;;;5094254;28;20209;-63
2024/01/27 07:54:00;;;;;;;3.03;2.70;;;;;;;;;;5086706;28;20691;-63
2024/01/27 07:56:27;;;;;;;9.30;2.43;;;;;;;;;;5087713;28;20211;-63
2024/01/27 07:58:55;;;;;;;9.00;4.20;;;;;;;;;;5092606;28;20613;-63
2024/01/27 08:01:22;;;;;;;15.40;7.03;;;;;;;;;;5085615;28;20278;-63
2024/01/27 08:03:49;;;;;;;11.57;6.27;;;;;;;;;;5086887;28;20208;-63
2024/01/27 08:06:17;;;;;;;11.70;6.73;;;;;;;;;;5085551;28;20204;-62
2024/01/27 08:08:47;;;;;;;13.87;7.23;;;;;;;;;;5083188;28;20290;-68
2024/01/27 08:11:14;;;;;;;9.60;4.10;;;;;;;;;;5086525;28;20818;-63
2024/01/27 08:13:41;;;;;;;4.67;3.37;;;;;;;;;;5095161;28;20221;-63
2024/01/27 08:16:09;;;;;;;6.60;3.27;;;;;;;;;;5106955;28;20219;-64
2024/01/27 08:18:38;;;;;;;3.90;2.63;;;;;;;;;;5087514;28;20230;-63
2024/01/27 08:21:05;;;;;;;7.13;2.80;;;;;;;;;;5086105;28;20256;-63
2024/01/27 08:23:32;;;;;;;6.07;2.90;;;;;;;;;;5087204;28;20204;-63
2024/01/27 08:26:02;;;;;;;3.50;2.57;;;;;;;;;;5085255;28;20572;-63
2024/01/27 08:28:29;;;;;;;8.00;6.27;;;;;;;;;;5086797;28;20209;-63
2024/01/27 08:31:01;;;;;;;9.37;4.07;;;;;;;;;;5085889;28;20682;-63
2024/01/27 08:33:28;;;;;;;5.53;3.97;;;;;;;;;;5087006;28;20206;-63
2024/01/27 08:35:56;;;;;;;9.97;3.97;;;;;;;;;;5086324;28;20236;-64
2024/01/27 08:38:23;;;;;;;5.87;3.90;;;;;;;;;;5087208;28;20240;-62
2024/01/27 08:40:50;;;;;;;3.67;3.33;;;;;;;;;;5087196;28;20210;-63
2024/01/27 08:43:18;;;;;;;5.87;3.67;;;;;;;;;;5086854;28;20208;-63
2024/01/27 08:45:45;;;;;;;6.37;3.50;;;;;;;;;;5074717;28;20244;-64
2024/01/27 08:48:12;;;;;;;5.33;3.30;;;;;;;;;;5069432;28;20222;-64
2024/01/27 08:50:39;;;;;;;5.73;3.03;;;;;;;;;;5086523;28;20219;-64
2024/01/27 08:53:06;;;;;;;4.50;3.47;;;;;;;;;;5085926;28;20296;-63
2024/01/27 08:55:34;;;;;;;5.80;3.37;;;;;;;;;;5086239;28;20223;-64
2024/01/27 08:58:01;;;;;;;5.37;3.60;;;;;;;;;;5087082;28;20306;-63
2024/01/27 09:00:29;;;;;;;5.47;3.80;;;;;;;;;;5085609;28;20285;-64
2024/01/27 09:02:56;;;;;;;9.43;3.63;;;;;;;;;;5086853;28;20209;-63
2024/01/27 09:05:23;;;;;;;6.63;3.83;;;;;;;;;;5090323;28;20313;-64
2024/01/27 09:07:50;;;;;;;4.73;3.53;;;;;;;;;;5087991;28;20198;-65
2024/01/27 09:10:18;;;;;;;6.63;3.63;;;;;;;;;;5089955;28;20666;-65
2024/01/27 09:12:45;;;;;;;4.43;3.33;;;;;;;;;;5089638;28;20301;-62
2024/01/27 09:15:12;;;;;;;6.10;3.90;;;;;;;;;;5089963;28;20199;-63
2024/01/27 09:17:42;;;;;;;8.30;3.40;;;;;;;;;;5090485;28;20222;-63
2024/01/27 09:20:10;;;;;;;6.33;3.27;;;;;;;;;;5090116;28;20210;-63
2024/01/27 09:22:37;;;;;;;7.13;3.20;;;;;;;;;;5090346;28;20202;-64
2024/01/27 09:25:04;;;;;;;4.57;2.87;;;;;;;;;;5088478;28;20622;-63
2024/01/27 09:27:31;;;;;;;6.27;2.93;;;;;;;;;;5090327;28;20202;-64
2024/01/27 09:29:58;;;;;;;6.77;3.43;;;;;;;;;;5090246;28;20206;-64
2024/01/27 09:32:25;;;;;;;4.93;3.60;;;;;;;;;;5089561;28;20203;-64
2024/01/27 09:34:54;;;;;;;3.27;2.60;;;;;;;;;;5090123;28;20217;-64
2024/01/27 09:37:21;;;;;;;6.63;2.90;;;;;;;;;;5089604;28;20877;-64
2024/01/27 09:39:53;;;;;;;4.63;2.60;;;;;;;;;;5091864;28;20248;-64
2024/01/27 09:42:22;;;;;;;8.60;2.83;;;;;;;;;;5096533;28;20628;-64
2024/01/27 09:44:50;;;;;;;7.57;2.40;;;;;;;;;;5095107;28;20652;-65
2024/01/27 09:47:17;;;;;;;4.80;2.50;;;;;;;;;;5088437;28;20686;-62
2024/01/27 09:49:44;;;;;;;9.97;3.33;;;;;;;;;;5089141;28;20229;-63
2024/01/27 09:52:12;;;;;;;2.97;2.70;;;;;;;;;;5088068;28;20209;-63
2024/01/27 09:55:03;;;;;;;6.50;2.70;;;;;;;;;;5089456;28;20210;-63
2024/01/27 09:57:31;;;;;;;5.50;2.17;;;;;;;;;;5072986;28;20221;-63
2024/01/27 09:59:58;;;;;;;4.67;1.90;;;;;;;;;;5088810;28;20226;-63
2024/01/27 10:02:25;;;;;;;9.57;2.13;;;;;;;;;;5087700;28;20206;-64
2024/01/27 10:04:53;;;;;;;4.67;2.53;;;;;;;;;;5096634;28;20212;-63
2024/01/27 10:07:22;;;;;;;5.13;2.37;;;;;;;;;;5100468;28;20202;-64
2024/01/27 10:09:50;;;;;;;5.10;2.50;;;;;;;;;;5092398;28;20253;-64
2024/01/27 10:12:18;;;;;;;7.27;2.27;;;;;;;;;;5088667;28;20247;-64
2024/01/27 10:14:47;;;;;;;6.13;2.27;;;;;;;;;;5097774;28;20211;-64
2024/01/27 10:17:21;;;;;;;5.50;3.07;;;;;;;;;;5095257;28;20210;-64
2024/01/27 10:19:48;;;;;;;4.63;2.37;;;;;;;;;;5105341;28;20229;-64
2024/01/27 10:22:15;;;;;;;6.93;3.10;;;;;;;;;;5102171;28;20212;-64
2024/01/27 10:24:44;;;;;;;7.50;2.40;;;;;;;;;;5092725;28;20210;-64
2024/01/27 10:27:11;;;;;;;7.47;2.27;;;;;;;;;;5089421;28;20206;-64
2024/01/27 10:29:38;;;;;;;5.93;2.47;;;;;;;;;;5090889;28;20198;-64
2024/01/27 10:32:11;;;;;;;5.17;2.93;;;;;;;;;;5092335;28;20216;-64
2024/01/27 10:34:38;;;;;;;6.33;2.40;;;;;;;;;;5098848;28;20856;-64
2024/01/27 10:37:05;;;;;;;6.80;2.23;;;;;;;;;;5102383;28;20198;-64
2024/01/27 10:39:32;;;;;;;8.83;2.63;;;;;;;;;;5092497;28;20226;-64
2024/01/27 10:42:03;;;;;;;4.70;2.57;;;;;;;;;;5086475;28;20210;-64
2024/01/27 10:44:31;;;;;;;8.67;3.03;;;;;;;;;;5070852;28;20377;-64
2024/01/27 10:46:58;;;;;;;6.47;3.33;;;;;;;;;;5081684;28;20225;-64
2024/01/27 10:49:25;;;;;;;8.87;3.73;;;;;;;;;;5088200;28;20198;-65
2024/01/27 10:51:55;;;;;;;10.40;3.30;;;;;;;;;;5088167;28;20209;-64
2024/01/27 10:54:26;;;;;;;13.20;4.83;;;;;;;;;;5090153;28;20202;-64
2024/01/27 10:56:54;;;;;;;7.30;2.70;;;;;;;;;;5099927;28;20214;-65
2024/01/27 10:59:23;;;;;;;7.93;2.30;;;;;;;;;;5085999;28;20222;-64
2024/01/27 11:01:53;;;;;;;8.80;2.73;;;;;;;;;;5099692;28;20277;-64
2024/01/27 11:04:20;;;;;;;6.50;2.33;;;;;;;;;;5108073;28;20241;-66
2024/01/27 11:06:48;;;;;;;9.70;2.57;;;;;;;;;;5091844;28;20214;-64
2024/01/27 11:09:16;;;;;;;5.97;2.20;;;;;;;;;;5087917;28;20237;-64
2024/01/27 11:11:44;;;;;;;28.43;10.77;;;;;;;;;;5088456;28;20206;-64
2024/01/27 11:14:12;;;;;;;10.30;3.80;;;;;;;;;;5097742;28;20198;-63
2024/01/27 11:16:44;;;;;;;6.47;2.30;;;;;;;;;;5092698;28;20533;-63
2024/01/27 11:19:12;;;;;;;6.03;2.20;;;;;;;;;;5083139;28;20226;-65
2024/01/27 11:21:39;;;;;;;8.37;2.23;;;;;;;;;;5100979;28;20233;-64
2024/01/27 11:24:14;;;;;;;5.80;2.40;;;;;;;;;;5080851;28;20668;-64
2024/01/27 11:26:41;;;;;;;9.23;4.93;;;;;;;;;;5086387;28;20201;-63
2024/01/27 11:29:09;;;;;;;14.37;3.97;;;;;;;;;;5083690;28;20293;-63
2024/01/27 11:31:37;;;;;;;7.47;2.50;;;;;;;;;;5106524;28;20251;-63
2024/01/27 11:34:06;;;;;;;7.73;3.03;;;;;;;;;;5067395;28;20214;-64
2024/01/27 11:36:34;;;;;;;7.93;2.50;;;;;;;;;;5085417;28;20221;-63
2024/01/27 11:39:03;;;;;;;3.53;1.80;;;;;;;;;;5099202;28;20218;-62
2024/01/27 11:41:31;;;;;;;5.70;2.00;;;;;;;;;;5091801;28;20206;-62
2024/01/27 11:43:59;;;;;;;5.13;2.37;;;;;;;;;;5087777;28;20205;-61
2024/01/27 11:46:27;;;;;;;5.67;2.70;;;;;;;;;;5084635;28;20249;-61
2024/01/27 11:48:54;;;;;;;8.10;2.53;;;;;;;;;;5080157;28;20198;-62
2024/01/27 11:51:23;;;;;;;4.23;1.97;;;;;;;;;;5087590;28;20198;-62
2024/01/27 11:53:50;;;;;;;7.00;2.10;;;;;;;;;;5086772;28;20623;-61
2024/01/27 11:56:17;;;;;;;3.37;1.87;;;;;;;;;;5086566;28;20712;-62
2024/01/27 11:58:48;;;;;;;6.40;2.40;;;;;;;;;;5087399;28;20237;-62
2024/01/27 12:01:15;;;;;;;5.47;2.13;;;;;;;;;;5100587;28;20264;-67
2024/01/27 12:03:42;;;;;;;3.70;2.13;;;;;;;;;;5092119;28;20602;-61
2024/01/27 12:06:10;;;;;;;3.90;2.33;;;;;;;;;;5077521;28;20244;-64
2024/01/27 12:08:38;;;;;;;5.80;2.17;;;;;;;;;;5084062;28;20207;-62
2024/01/27 12:11:05;;;;;;;3.37;1.97;;;;;;;;;;5084095;28;21112;-61
2024/01/27 12:13:32;;;;;;;3.87;1.73;;;;;;;;;;5062534;28;20203;-63
2024/01/27 12:15:59;;;;;;;8.40;2.30;;;;;;;;;;5076917;28;20214;-62
2024/01/27 12:18:26;;;;;;;8.37;2.07;;;;;;;;;;5091105;28;20206;-66
2024/01/27 12:20:57;;;;;;;5.70;1.93;;;;;;;;;;5088050;28;20316;-63
2024/01/27 12:23:24;;;;;;;7.20;2.23;;;;;;;;;;5086484;28;20293;-64
2024/01/27 12:25:55;;;;;;;5.27;2.10;;;;;;;;;;5085908;28;20210;-61
2024/01/27 12:28:23;;;;;;;7.53;1.80;;;;;;;;;;5085459;28;20283;-63
2024/01/27 12:30:51;;;;;;;6.30;1.77;;;;;;;;;;5086425;28;20214;-63
2024/01/27 12:33:19;;;;;;;7.80;2.10;;;;;;;;;;5085820;28;20301;-63
2024/01/27 12:35:48;;;;;;;5.63;2.43;;;;;;;;;;5085709;28;20211;-63
2024/01/27 12:38:15;;;;;;;5.03;2.07;;;;;;;;;;5087943;28;20255;-63
2024/01/27 12:40:43;;;;;;;5.60;2.27;;;;;;;;;;5090722;28;20234;-63
2024/01/27 12:43:11;;;;;;;6.97;2.20;;;;;;;;;;5090386;28;20229;-63
2024/01/27 12:45:39;;;;;;;7.50;3.23;;;;;;;;;;5089564;28;20668;-64
2024/01/27 12:48:06;;;;;;;5.67;2.20;;;;;;;;;;5083504;28;20226;-64
2024/01/27 12:50:33;;;;;;;3.67;1.80;;;;;;;;;;5090096;28;20585;-64
2024/01/27 12:53:00;;;;;;;8.17;2.30;;;;;;;;;;5089883;28;20199;-64
2024/01/27 12:55:28;;;;;;;4.47;2.33;;;;;;;;;;5087892;28;20210;-64
2024/01/27 12:57:55;;;;;;;5.40;2.10;;;;;;;;;;5090885;28;20234;-64
2024/01/27 13:00:24;;;;;;;5.73;2.40;;;;;;;;;;5078510;28;20234;-63
2024/01/27 13:02:51;;;;;;;4.80;2.00;;;;;;;;;;5076023;28;20263;-66
2024/01/27 13:05:18;;;;;;;4.03;2.00;;;;;;;;;;5089263;28;20199;-63
2024/01/27 13:07:45;;;;;;;8.77;2.13;;;;;;;;;;5089311;28;20252;-63
2024/01/27 13:10:12;;;;;;;8.70;2.33;;;;;;;;;;5089026;28;20234;-64
2024/01/27 13:12:39;;;;;;;2.63;1.57;;;;;;;;;;5089474;28;20206;-63
2024/01/27 13:15:06;;;;;;;3.23;1.83;;;;;;;;;;5088836;28;20422;-63
2024/01/27 13:17:35;;;;;;;9.40;3.43;;;;;;;;;;5085579;28;20506;-61
2024/01/27 13:20:02;;;;;;;8.53;2.90;;;;;;;;;;5089375;28;20223;-62
2024/01/27 13:22:29;;;;;;;9.27;2.27;;;;;;;;;;5089977;28;20214;-62
2024/01/27 13:24:57;;;;;;;2.53;1.47;;;;;;;;;;5089258;28;20205;-62
2024/01/27 13:27:24;;;;;;;4.30;1.77;;;;;;;;;;5089190;28;20203;-63
2024/01/27 13:29:51;;;;;;;3.80;1.53;;;;;;;;;;5089460;28;20202;-63
2024/01/27 13:32:18;;;;;;;8.27;2.33;;;;;;;;;;5089101;28;20251;-62
2024/01/27 13:34:47;;;;;;;2.30;1.40;;;;;;;;;;5080530;28;20226;-62
2024/01/27 13:37:15;;;;;;;4.70;1.47;;;;;;;;;;5089444;28;20221;-63
2024/01/27 13:39:42;;;;;;;5.70;1.70;;;;;;;;;;5088659;28;20375;-63
2024/01/27 13:42:10;;;;;;;5.87;1.60;;;;;;;;;;5089075;28;20790;-63
2024/01/27 13:44:37;;;;;;;1.63;1.10;;;;;;;;;;5091023;28;20573;-63
2024/01/27 13:47:04;;;;;;;8.37;1.43;;;;;;;;;;5088122;28;20220;-63
2024/01/27 13:49:31;;;;;;;9.17;1.50;;;;;;;;;;5091471;28;20201;-63
2024/01/27 13:52:00;;;;;;;1.07;0.90;;;;;;;;;;5096387;28;20668;-63
2024/01/27 13:54:27;;;;;;;3.73;1.20;;;;;;;;;;5079703;28;20206;-62
2024/01/27 13:56:54;;;;;;;7.83;1.53;;;;;;;;;;5087431;28;20214;-63
2024/01/27 13:59:21;;;;;;;5.93;1.50;;;;;;;;;;5089049;28;20237;-63
2024/01/27 14:01:48;;;;;;;3.23;1.30;;;;;;;;;;5087294;28;20206;-63
2024/01/27 14:04:15;;;;;;;2.47;1.20;;;;;;;;;;5097035;28;20229;-69
2024/01/27 14:06:43;;;;;;;4.67;1.57;;;;;;;;;;5087067;28;20217;-63
2024/01/27 14:09:13;;;;;;;2.50;1.30;;;;;;;;;;5086595;28;20202;-63
2024/01/27 14:11:40;;;;;;;4.37;1.27;;;;;;;;;;5086420;28;20210;-63
2024/01/27 14:14:07;;;;;;;3.40;1.13;;;;;;;;;;5087747;28;20213;-69
2024/01/27 14:16:34;;;;;;;6.13;1.73;;;;;;;;;;5086593;28;20206;-65
2024/01/27 14:19:01;;;;;;;5.70;1.87;;;;;;;;;;5088963;28;20803;-65
2024/01/27 14:21:28;;;;;;;3.67;1.47;;;;;;;;;;5087461;28;20781;-65
2024/01/27 14:24:00;;;;;;;5.37;1.10;;;;;;;;;;5086556;28;20206;-64
2024/01/27 14:26:29;;;;;;;3.50;1.23;;;;;;;;;;5086078;28;20203;-64
2024/01/27 14:28:56;;;;;;;3.43;1.10;;;;;;;;;;5087588;28;20222;-63
2024/01/27 14:31:23;;;;;;;6.10;1.47;;;;;;;;;;5088024;28;20211;-64
2024/01/27 14:33:50;;;;;;;3.40;1.40;;;;;;;;;;5087006;28;20214;-64
2024/01/27 14:36:17;;;;;;;7.50;1.17;;;;;;;;;;5085881;28;20294;-64
2024/01/27 14:38:44;;;;;;;4.33;1.00;;;;;;;;;;5086584;28;20218;-63
2024/01/27 14:41:12;;;;;;;3.83;1.67;;;;;;;;;;5081888;28;20226;-64
2024/01/27 14:43:40;;;;;;;6.43;2.20;;;;;;;;;;5086332;28;20638;-63
2024/01/27 14:46:07;;;;;;;6.50;2.43;;;;;;;;;;5085562;28;20252;-63